createdAt,value
2024-04-02T00:00:52.354Z,0.65
2024-04-02T00:01:52.366Z,0.65
2024-04-02T00:02:52.392Z,0.66
2024-04-02T00:03:52.394Z,0.66
2024-04-02T00:04:52.455Z,0.66
2024-04-02T00:05:52.438Z,0.66
2024-04-02T00:06:52.455Z,0.66
2024-04-02T00:07:52.490Z,0.65
2024-04-02T00:08:52.515Z,0.67
2024-04-02T00:09:52.544Z,0.67
2024-04-02T00:10:52.540Z,0.66
2024-04-02T00:11:52.569Z,0.66
2024-04-02T00:12:52.583Z,0.66
2024-04-02T00:13:52.619Z,0.66
2024-04-02T00:14:52.666Z,0.66
2024-04-02T00:15:52.667Z,0.66
2024-04-02T00:16:52.685Z,0.65
2024-04-02T00:17:52.716Z,0.66
2024-04-02T00:18:52.758Z,0.65
2024-04-02T00:19:52.791Z,0.65
2024-04-02T00:20:52.796Z,0.66
2024-04-02T00:21:52.820Z,0.66
2024-04-02T00:22:52.842Z,0.67
2024-04-02T00:23:52.878Z,0.68
2024-04-02T00:24:52.929Z,0.68
2024-04-02T00:25:52.941Z,0.68
2024-04-02T00:26:52.953Z,0.68
2024-04-02T00:27:52.971Z,0.68
2024-04-02T00:28:52.975Z,0.68
2024-04-02T00:29:53.013Z,0.69
2024-04-02T00:30:52.998Z,0.69
2024-04-02T00:31:53.020Z,0.69
2024-04-02T00:32:53.035Z,0.69
2024-04-02T00:33:53.050Z,0.69
2024-04-02T00:34:53.098Z,0.69
2024-04-02T00:35:53.093Z,0.69
2024-04-02T00:36:53.112Z,0.70
2024-04-02T00:37:53.121Z,0.69
2024-04-02T00:38:53.147Z,0.69
2024-04-02T00:39:53.189Z,0.69
2024-04-02T00:40:53.169Z,0.69
2024-04-02T00:41:53.178Z,0.69
2024-04-02T00:42:53.206Z,0.70
2024-04-02T00:43:54.082Z,0.69
2024-04-02T00:44:53.236Z,0.69
2024-04-02T00:45:53.246Z,0.68
2024-04-02T00:46:53.218Z,0.69
2024-04-02T00:47:53.261Z,0.69
2024-04-02T00:48:53.271Z,0.69
2024-04-02T00:49:53.263Z,0.69
2024-04-02T00:50:53.308Z,0.68
2024-04-02T00:51:53.312Z,0.68
2024-04-02T00:52:53.340Z,0.69
2024-04-02T00:53:54.068Z,0.68
2024-04-02T00:54:53.389Z,0.69
2024-04-02T00:55:53.454Z,0.69
2024-04-02T00:56:53.434Z,0.69
2024-04-02T00:57:53.459Z,0.69
2024-04-02T00:58:53.462Z,0.69
2024-04-02T00:59:53.493Z,0.69
2024-04-02T01:00:53.508Z,0.69
2024-04-02T01:01:53.563Z,0.69
2024-04-02T01:02:53.568Z,0.69
2024-04-02T01:03:53.591Z,0.70
2024-04-02T01:04:53.626Z,0.70
2024-04-02T01:05:53.652Z,0.69
2024-04-02T01:06:53.671Z,0.68
2024-04-02T01:07:53.686Z,0.69
2024-04-02T01:08:53.720Z,0.68
2024-04-02T01:09:53.734Z,0.69
2024-04-02T01:10:53.750Z,0.70
2024-04-02T01:11:53.788Z,0.68
2024-04-02T01:12:53.811Z,0.69
2024-04-02T01:13:53.850Z,0.68
2024-04-02T01:14:53.880Z,0.68
2024-04-02T01:15:53.890Z,0.68
2024-04-02T01:16:53.909Z,0.68
2024-04-02T01:17:53.944Z,0.68
2024-04-02T01:18:54.028Z,0.68
2024-04-02T01:19:54.006Z,0.67
2024-04-02T01:20:54.058Z,0.67
2024-04-02T01:21:54.067Z,0.67
2024-04-02T01:22:54.100Z,0.67
2024-04-02T01:23:54.116Z,0.67
2024-04-02T01:24:54.137Z,0.69
2024-04-02T01:25:54.133Z,0.67
2024-04-02T01:26:54.142Z,0.68
2024-04-02T01:27:54.154Z,0.69
2024-04-02T01:28:54.161Z,0.69
2024-04-02T01:29:54.166Z,0.68
2024-04-02T01:30:54.208Z,0.67
2024-04-02T01:31:54.228Z,0.67
2024-04-02T01:32:54.222Z,0.67
2024-04-02T01:33:54.244Z,0.67
2024-04-02T01:34:54.282Z,0.67
2024-04-02T01:35:54.284Z,0.67
2024-04-02T01:36:54.310Z,0.67
2024-04-02T01:37:54.329Z,0.68
2024-04-02T01:38:54.336Z,0.68
2024-04-02T01:39:54.373Z,0.67
2024-04-02T01:40:54.395Z,0.67
2024-04-02T01:41:54.401Z,0.67
2024-04-02T01:42:54.425Z,0.68
2024-04-02T01:43:54.443Z,0.68
2024-04-02T01:44:54.458Z,0.67
2024-04-02T01:45:54.481Z,0.68
2024-04-02T01:46:54.559Z,0.67
2024-04-02T01:47:54.498Z,0.67
2024-04-02T01:48:54.532Z,0.67
2024-04-02T01:49:54.537Z,0.68
2024-04-02T01:50:54.558Z,0.68
2024-04-02T01:51:54.560Z,0.67
2024-04-02T01:52:54.574Z,0.67
2024-04-02T01:53:54.585Z,0.69
2024-04-02T01:54:54.608Z,0.69
2024-04-02T01:55:54.634Z,0.69
2024-04-02T01:56:54.655Z,0.68
2024-04-02T01:57:54.661Z,0.68
2024-04-02T01:58:54.688Z,0.68
2024-04-02T01:59:54.722Z,0.68
2024-04-02T02:00:54.755Z,0.67
2024-04-02T02:01:54.785Z,0.68
2024-04-02T02:02:54.834Z,0.68
2024-04-02T02:03:54.830Z,0.69
2024-04-02T02:04:54.853Z,0.68
2024-04-02T02:05:54.867Z,0.68
2024-04-02T02:06:54.869Z,0.68
2024-04-02T02:07:54.886Z,0.67
2024-04-02T02:08:54.891Z,0.69
2024-04-02T02:09:54.898Z,0.68
2024-04-02T02:10:54.913Z,0.67
2024-04-02T02:11:54.915Z,0.67
2024-04-02T02:12:54.917Z,0.68
2024-04-02T02:13:54.922Z,0.68
2024-04-02T02:14:54.926Z,0.68
2024-04-02T02:15:54.963Z,0.67
2024-04-02T02:16:54.945Z,0.68
2024-04-02T02:17:54.977Z,0.67
2024-04-02T02:18:54.977Z,0.68
2024-04-02T02:19:55.010Z,0.68
2024-04-02T02:20:55.009Z,0.68
2024-04-02T02:21:55.019Z,0.68
2024-04-02T02:22:55.042Z,0.68
2024-04-02T02:23:55.064Z,0.68
2024-04-02T02:24:55.069Z,0.67
2024-04-02T02:25:55.104Z,0.67
2024-04-02T02:26:55.100Z,0.67
2024-04-02T02:27:55.098Z,0.67
2024-04-02T02:28:55.106Z,0.68
2024-04-02T02:29:55.127Z,0.68
2024-04-02T02:30:55.146Z,0.67
2024-04-02T02:31:55.142Z,0.68
2024-04-02T02:32:55.157Z,0.68
2024-04-02T02:33:55.145Z,0.68
2024-04-02T02:34:55.152Z,0.67
2024-04-02T02:35:55.164Z,0.68
2024-04-02T02:36:55.170Z,0.67
2024-04-02T02:37:55.175Z,0.67
2024-04-02T02:38:55.189Z,0.67
2024-04-02T02:39:55.194Z,0.67
2024-04-02T02:40:55.210Z,0.67
2024-04-02T02:41:55.223Z,0.67
2024-04-02T02:42:55.238Z,0.68
2024-04-02T02:43:55.253Z,0.68
2024-04-02T02:44:55.278Z,0.68
2024-04-02T02:45:55.287Z,0.68
2024-04-02T02:46:55.316Z,0.67
2024-04-02T02:47:55.330Z,0.66
2024-04-02T02:48:55.348Z,0.67
2024-04-02T02:49:55.345Z,0.67
2024-04-02T02:50:55.380Z,0.67
2024-04-02T02:51:55.379Z,0.67
2024-04-02T02:52:55.380Z,0.66
2024-04-02T02:53:55.386Z,0.67
2024-04-02T02:54:55.386Z,0.68
2024-04-02T02:55:55.438Z,0.66
2024-04-02T02:56:55.424Z,0.66
2024-04-02T02:57:55.447Z,0.66
2024-04-02T02:58:55.443Z,0.66
2024-04-02T02:59:55.445Z,0.66
2024-04-02T03:00:55.471Z,0.65
2024-04-02T03:01:55.505Z,0.64
2024-04-02T03:02:55.470Z,0.65
2024-04-02T03:03:55.499Z,0.65
2024-04-02T03:04:55.683Z,0.65
2024-04-02T03:05:55.533Z,0.66
2024-04-02T03:06:55.518Z,0.65
2024-04-02T03:07:55.527Z,0.67
2024-04-02T03:08:55.573Z,0.66
2024-04-02T03:09:55.591Z,0.66
2024-04-02T03:10:55.630Z,0.66
2024-04-02T03:11:55.616Z,0.66
2024-04-02T03:12:55.590Z,0.66
2024-04-02T03:13:55.626Z,0.66
2024-04-02T03:14:55.663Z,0.66
2024-04-02T03:15:55.617Z,0.67
2024-04-02T03:16:55.726Z,0.65
2024-04-02T03:17:55.625Z,0.65
2024-04-02T03:18:55.642Z,0.65
2024-04-02T03:19:55.662Z,0.65
2024-04-02T03:20:55.673Z,0.66
2024-04-02T03:21:55.676Z,0.66
2024-04-02T03:22:55.680Z,0.66
2024-04-02T03:23:55.696Z,0.66
2024-04-02T03:24:55.699Z,0.65
2024-04-02T03:25:55.740Z,0.66
2024-04-02T03:26:55.798Z,0.64
2024-04-02T03:27:55.741Z,0.65
2024-04-02T03:28:55.753Z,0.65
2024-04-02T03:29:55.762Z,0.65
2024-04-02T03:30:55.776Z,0.65
2024-04-02T03:31:55.796Z,0.64
2024-04-02T03:32:55.833Z,0.65
2024-04-02T03:33:55.840Z,0.64
2024-04-02T03:34:55.842Z,0.64
2024-04-02T03:35:55.868Z,0.63
2024-04-02T03:36:55.874Z,0.63
2024-04-02T03:37:55.891Z,0.62
2024-04-02T03:38:55.880Z,0.61
2024-04-02T03:39:55.900Z,0.61
2024-04-02T03:40:55.919Z,0.61
2024-04-02T03:41:55.923Z,0.61
2024-04-02T03:42:55.931Z,0.60
2024-04-02T03:43:55.943Z,0.61
2024-04-02T03:44:55.961Z,0.62
2024-04-02T03:45:55.966Z,0.61
2024-04-02T03:46:55.977Z,0.61
2024-04-02T03:47:55.996Z,0.62
2024-04-02T03:48:56.008Z,0.62
2024-04-02T03:49:56.019Z,0.62
2024-04-02T03:50:56.052Z,0.62
2024-04-02T03:51:56.043Z,0.62
2024-04-02T03:52:56.058Z,0.64
2024-04-02T03:53:56.082Z,0.62
2024-04-02T03:54:56.094Z,0.63
2024-04-02T03:55:56.113Z,0.62
2024-04-02T03:56:56.115Z,0.63
2024-04-02T03:57:56.136Z,0.63
2024-04-02T03:58:56.140Z,0.63
2024-04-02T03:59:56.156Z,0.64
2024-04-02T04:00:56.162Z,0.63
2024-04-02T04:01:56.169Z,0.64
2024-04-02T04:02:56.175Z,0.64
2024-04-02T04:03:56.183Z,0.64
2024-04-02T04:04:56.187Z,0.65
2024-04-02T04:05:56.202Z,0.64
2024-04-02T04:06:56.203Z,0.65
2024-04-02T04:07:56.231Z,0.64
2024-04-02T04:08:56.224Z,0.64
2024-04-02T04:09:56.223Z,0.64
2024-04-02T04:10:56.243Z,0.65
2024-04-02T04:11:56.248Z,0.65
2024-04-02T04:12:56.266Z,0.65
2024-04-02T04:13:56.276Z,0.66
2024-04-02T04:14:56.283Z,0.66
2024-04-02T04:15:56.288Z,0.67
2024-04-02T04:16:56.293Z,0.67
2024-04-02T04:17:56.297Z,0.67
2024-04-02T04:18:56.316Z,0.67
2024-04-02T04:19:56.324Z,0.67
2024-04-02T04:20:56.327Z,0.68
2024-04-02T04:21:56.326Z,0.68
2024-04-02T04:22:56.334Z,0.68
2024-04-02T04:23:56.346Z,0.69
2024-04-02T04:24:56.354Z,0.68
2024-04-02T04:25:56.366Z,0.68
2024-04-02T04:26:56.377Z,0.69
2024-04-02T04:27:56.382Z,0.69
2024-04-02T04:28:56.391Z,0.68
2024-04-02T04:29:56.405Z,0.68
2024-04-02T04:31:03.631Z,0.50
2024-04-02T04:32:03.608Z,0.50
2024-04-02T04:33:03.605Z,0.50
2024-04-02T04:34:03.610Z,0.50
2024-04-02T04:35:03.616Z,0.50
2024-04-02T04:36:03.623Z,0.51
2024-04-02T04:37:03.613Z,0.50
2024-04-02T04:38:03.610Z,0.51
2024-04-02T04:39:03.610Z,0.51
2024-04-02T04:40:03.619Z,0.50
2024-04-02T04:41:03.623Z,0.50
2024-04-02T04:42:03.625Z,0.50
2024-04-02T04:43:03.637Z,0.51
2024-04-02T04:44:03.650Z,0.51
2024-04-02T04:45:03.622Z,0.50
2024-04-02T04:46:03.633Z,0.51
2024-04-02T04:47:03.637Z,0.50
2024-04-02T04:48:03.630Z,0.51
2024-04-02T04:49:03.626Z,0.50
2024-04-02T04:50:03.629Z,0.51
2024-04-02T04:51:03.630Z,0.51
2024-04-02T04:52:03.631Z,0.50
2024-04-02T04:53:03.634Z,0.51
2024-04-02T04:54:03.640Z,0.50
2024-04-02T04:55:03.636Z,0.50
2024-04-02T04:56:03.646Z,0.50
2024-04-02T04:57:03.659Z,0.50
2024-04-02T04:58:03.641Z,0.50
2024-04-02T04:59:03.648Z,0.51
2024-04-02T05:00:03.654Z,0.51
2024-04-02T05:01:03.661Z,0.51
2024-04-02T05:02:03.651Z,0.51
2024-04-02T05:03:03.655Z,0.51
2024-04-02T05:04:03.651Z,0.51
2024-04-02T05:05:03.654Z,0.51
2024-04-02T05:06:05.275Z,0.52
2024-04-02T05:07:03.702Z,0.52
2024-04-02T05:08:03.687Z,0.52
2024-04-02T05:09:03.671Z,0.52
2024-04-02T05:10:03.703Z,0.52
2024-04-02T05:11:03.768Z,0.53
2024-04-02T05:12:14.464Z,0.53
2024-04-02T05:13:14.368Z,0.52
2024-04-02T05:14:10.286Z,0.52
2024-04-02T05:15:24.748Z,0.52
2024-04-02T05:16:04.249Z,0.52
2024-04-02T05:17:03.680Z,0.53
2024-04-02T05:18:03.677Z,0.55
2024-04-02T05:19:03.686Z,0.57
2024-04-02T05:20:03.686Z,0.60
2024-04-02T05:21:03.685Z,0.61
2024-04-02T05:22:03.692Z,0.60
2024-04-02T05:23:03.708Z,0.60
2024-04-02T05:24:05.273Z,0.60
2024-04-02T05:25:27.318Z,0.60
2024-04-02T05:26:14.289Z,0.60
2024-04-02T05:27:26.740Z,0.60
2024-04-02T05:28:03.717Z,0.60
2024-04-02T05:29:03.699Z,0.61
2024-04-02T05:30:03.692Z,0.62
2024-04-02T05:31:03.711Z,0.63
2024-04-02T05:32:03.710Z,0.64
2024-04-02T05:33:03.711Z,0.65
2024-04-02T05:34:03.781Z,0.66
2024-04-02T05:35:03.722Z,0.67
2024-04-02T05:36:03.715Z,0.67
2024-04-02T05:37:03.720Z,0.68
2024-04-02T05:38:03.746Z,0.69
2024-04-02T05:39:03.811Z,0.69
2024-04-02T05:40:03.831Z,0.71
2024-04-02T05:41:03.883Z,0.75
2024-04-02T05:42:03.923Z,0.81
2024-04-02T05:43:04.019Z,0.85
2024-04-02T05:44:03.989Z,0.91
2024-04-02T05:45:04.921Z,0.99
2024-04-02T05:46:04.056Z,1.07
2024-04-02T05:47:04.080Z,1.11
2024-04-02T05:48:04.137Z,1.21
2024-04-02T05:49:04.151Z,1.28
2024-04-02T05:50:04.196Z,1.48
2024-04-02T05:51:04.220Z,1.58
2024-04-02T05:52:04.234Z,1.68
2024-04-02T05:53:15.395Z,1.75
2024-04-02T05:54:04.278Z,1.75
2024-04-02T05:55:04.267Z,1.78
2024-04-02T05:56:04.310Z,1.86
2024-04-02T05:57:04.270Z,2.00
2024-04-02T05:58:04.277Z,2.32
2024-04-02T05:59:04.298Z,2.48
2024-04-02T06:00:04.281Z,2.54
2024-04-02T06:01:04.279Z,2.60
2024-04-02T06:02:04.278Z,2.61
2024-04-02T06:03:04.278Z,2.62
2024-04-02T06:04:04.307Z,2.62
2024-04-02T06:05:04.284Z,2.72
2024-04-02T06:06:04.304Z,2.78
2024-04-02T06:07:04.310Z,2.86
2024-04-02T06:08:04.329Z,2.96
2024-04-02T06:09:04.425Z,3.03
2024-04-02T06:10:04.370Z,3.13
2024-04-02T06:11:04.395Z,3.25
2024-04-02T06:12:04.455Z,3.30
2024-04-02T06:13:04.442Z,3.39
2024-04-02T06:14:04.433Z,3.33
2024-04-02T06:15:04.456Z,3.12
2024-04-02T06:16:04.519Z,3.03
2024-04-02T06:17:05.889Z,3.04
2024-04-02T06:18:04.628Z,3.19
2024-04-02T06:19:04.642Z,3.14
2024-04-02T06:20:04.702Z,2.93
2024-04-02T06:21:04.732Z,2.65
2024-04-02T06:22:04.798Z,2.47
2024-04-02T06:23:06.534Z,2.60
2024-04-02T06:24:05.023Z,2.67
2024-04-02T06:25:04.988Z,2.81
2024-04-02T06:26:05.081Z,2.78
2024-04-02T06:27:05.100Z,2.72
2024-04-02T06:28:05.175Z,2.77
2024-04-02T06:29:05.236Z,2.96
2024-04-02T06:30:05.285Z,3.02
2024-04-02T06:31:05.305Z,3.22
2024-04-02T06:32:05.288Z,3.38
2024-04-02T06:33:05.302Z,3.45
2024-04-02T06:34:05.350Z,3.38
2024-04-02T06:35:05.398Z,3.47
2024-04-02T06:36:05.796Z,3.41
2024-04-02T06:37:05.785Z,3.30
2024-04-02T06:38:05.585Z,3.23
2024-04-02T06:39:05.651Z,3.04
2024-04-02T06:40:05.690Z,2.99
2024-04-02T06:41:05.743Z,2.85
2024-04-02T06:42:05.820Z,2.69
2024-04-02T06:43:05.816Z,2.37
2024-04-02T06:44:05.823Z,2.21
2024-04-02T06:45:05.827Z,2.09
2024-04-02T06:46:05.842Z,1.88
2024-04-02T06:47:05.851Z,1.83
2024-04-02T06:48:05.855Z,1.72
2024-04-02T06:49:05.866Z,1.57
2024-04-02T06:50:05.938Z,1.52
2024-04-02T06:51:06.001Z,1.42
2024-04-02T06:52:06.087Z,1.32
2024-04-02T06:53:06.116Z,1.30
2024-04-02T06:54:06.158Z,1.32
2024-04-02T06:55:06.165Z,1.31
2024-04-02T06:56:06.177Z,1.34
2024-04-02T06:57:06.197Z,1.32
2024-04-02T06:58:06.214Z,1.31
2024-04-02T06:59:06.252Z,1.30
2024-04-02T07:00:06.288Z,1.37
2024-04-02T07:01:06.338Z,1.41
2024-04-02T07:02:06.371Z,1.46
2024-04-02T07:03:06.420Z,1.44
2024-04-02T07:04:06.460Z,1.46
2024-04-02T07:05:06.492Z,1.37
2024-04-02T07:06:06.518Z,1.35
2024-04-02T07:07:06.539Z,1.28
2024-04-02T07:08:06.531Z,1.28
2024-04-02T07:09:06.557Z,1.25
2024-04-02T07:10:06.619Z,1.20
2024-04-02T07:11:06.677Z,1.29
2024-04-02T07:12:06.711Z,1.34
2024-04-02T07:13:06.735Z,1.38
2024-04-02T07:14:06.733Z,1.42
2024-04-02T07:15:06.746Z,1.46
2024-04-02T07:16:06.803Z,1.53
2024-04-02T07:17:06.782Z,1.58
2024-04-02T07:18:06.841Z,1.60
2024-04-02T07:19:06.842Z,1.64
2024-04-02T07:20:06.869Z,1.61
2024-04-02T07:21:06.904Z,1.69
2024-04-02T07:22:06.921Z,1.68
2024-04-02T07:23:06.956Z,1.70
2024-04-02T07:24:06.987Z,1.61
2024-04-02T07:25:07.023Z,1.55
2024-04-02T07:26:07.078Z,1.40
2024-04-02T07:27:07.123Z,1.28
2024-04-02T07:28:07.173Z,1.14
2024-04-02T07:29:07.223Z,1.13
2024-04-02T07:30:07.286Z,1.07
2024-04-02T07:31:07.370Z,1.05
2024-04-02T07:32:07.451Z,1.03
2024-04-02T07:33:07.478Z,1.11
2024-04-02T07:34:07.529Z,1.11
2024-04-02T07:35:07.683Z,1.14
2024-04-02T07:36:07.639Z,1.15
2024-04-02T07:37:07.698Z,1.30
2024-04-02T07:38:07.830Z,1.31
2024-04-02T07:39:07.798Z,1.39
2024-04-02T07:40:07.845Z,1.40
2024-04-02T07:41:07.903Z,1.45
2024-04-02T07:42:07.946Z,1.46
2024-04-02T07:43:07.992Z,1.49
2024-04-02T07:44:08.045Z,1.53
2024-04-02T07:45:08.085Z,1.56
2024-04-02T07:46:08.144Z,1.58
2024-04-02T07:47:08.177Z,1.55
2024-04-02T07:48:08.348Z,1.61
2024-04-02T07:49:08.251Z,1.65
2024-04-02T07:50:08.284Z,1.63
2024-04-02T07:51:08.366Z,1.69
2024-04-02T07:52:08.996Z,1.94
2024-04-02T07:53:08.399Z,1.95
2024-04-02T07:54:08.428Z,1.89
2024-04-02T07:55:08.475Z,1.86
2024-04-02T07:56:08.516Z,1.84
2024-04-02T07:57:08.560Z,1.98
2024-04-02T07:58:08.590Z,2.29
2024-04-02T07:59:09.407Z,2.46
2024-04-02T08:00:08.661Z,2.63
2024-04-02T08:01:08.701Z,2.53
2024-04-02T08:02:08.734Z,2.48
2024-04-02T08:03:08.777Z,2.58
2024-04-02T08:04:08.788Z,2.80
2024-04-02T08:05:08.814Z,2.92
2024-04-02T08:06:08.842Z,2.95
2024-04-02T08:07:08.866Z,2.94
2024-04-02T08:08:08.886Z,2.90
2024-04-02T08:09:08.899Z,2.87
2024-04-02T08:10:08.910Z,2.81
2024-04-02T08:11:08.923Z,2.87
2024-04-02T08:12:08.942Z,2.84
2024-04-02T08:13:08.954Z,2.92
2024-04-02T08:14:08.963Z,2.87
2024-04-02T08:15:08.979Z,2.88
2024-04-02T08:16:08.980Z,2.96
2024-04-02T08:17:08.998Z,2.97
2024-04-02T08:18:08.998Z,2.94
2024-04-02T08:19:09.013Z,2.97
2024-04-02T08:20:09.010Z,2.96
2024-04-02T08:21:09.088Z,2.92
2024-04-02T08:22:09.334Z,2.83
2024-04-02T08:23:09.065Z,2.77
2024-04-02T08:24:09.086Z,2.58
2024-04-02T08:25:09.077Z,2.33
2024-04-02T08:26:09.090Z,2.19
2024-04-02T08:27:09.123Z,1.98
2024-04-02T08:28:09.152Z,1.87
2024-04-02T08:29:09.185Z,1.72
2024-04-02T08:30:09.200Z,1.59
2024-04-02T08:31:09.241Z,1.52
2024-04-02T08:32:09.262Z,1.41
2024-04-02T08:33:09.304Z,1.37
2024-04-02T08:34:09.338Z,1.28
2024-04-02T08:35:09.369Z,1.21
2024-04-02T08:36:09.400Z,1.16
2024-04-02T08:37:09.439Z,1.13
2024-04-02T08:38:32.872Z,1.09
2024-04-02T08:39:10.159Z,1.09
2024-04-02T08:44:09.727Z,1.09
2024-04-02T08:45:32.136Z,1.12
2024-04-02T08:46:09.670Z,1.09
2024-04-02T08:47:09.695Z,1.09
2024-04-02T08:48:09.690Z,0.80
2024-04-02T08:49:09.679Z,0.64
2024-04-02T08:50:10.380Z,0.54
2024-04-02T08:51:09.702Z,0.50
2024-04-02T08:52:09.750Z,0.50
2024-04-02T08:53:09.682Z,0.52
2024-04-02T08:54:09.679Z,0.55
2024-04-02T08:55:09.678Z,0.59
2024-04-02T08:56:11.405Z,0.59
2024-04-02T08:57:09.748Z,0.64
2024-04-02T08:58:09.685Z,0.66
2024-04-02T08:59:09.703Z,0.67
2024-04-02T09:00:09.693Z,0.67
2024-04-02T09:01:09.802Z,0.69
2024-04-02T09:02:09.694Z,0.67
2024-04-02T09:03:10.193Z,0.70
2024-04-02T09:04:09.704Z,0.72
2024-04-02T09:05:09.705Z,0.76
2024-04-02T09:06:09.703Z,0.75
2024-04-02T09:07:10.561Z,0.78
2024-04-02T09:08:09.732Z,0.80
2024-04-02T09:09:09.708Z,0.83
2024-04-02T09:10:09.711Z,0.87
2024-04-02T09:11:09.703Z,0.87
2024-04-02T09:12:09.697Z,0.87
2024-04-02T09:13:09.709Z,0.92
2024-04-02T09:14:09.722Z,0.98
2024-04-02T09:15:09.737Z,1.01
2024-04-02T09:16:09.773Z,1.13
2024-04-02T09:17:09.769Z,1.38
2024-04-02T09:18:09.780Z,1.40
2024-04-02T09:19:09.799Z,1.46
2024-04-02T09:20:09.836Z,1.42
2024-04-02T09:21:10.262Z,1.40
2024-04-02T09:22:09.855Z,1.32
2024-04-02T09:23:09.879Z,1.24
2024-04-02T09:24:09.903Z,1.23
2024-04-02T09:25:09.926Z,1.14
2024-04-02T09:26:10.276Z,1.12
2024-04-02T09:27:09.994Z,1.06
2024-04-02T09:28:10.022Z,1.05
2024-04-02T09:29:10.070Z,1.03
2024-04-02T09:30:10.076Z,1.02
2024-04-02T09:31:10.287Z,1.03
2024-04-02T09:32:10.126Z,1.05
2024-04-02T09:33:10.135Z,1.09
2024-04-02T09:34:10.134Z,1.16
2024-04-02T09:35:10.152Z,1.15
2024-04-02T09:36:10.162Z,1.22
2024-04-02T09:37:10.265Z,1.23
2024-04-02T09:38:10.220Z,1.30
2024-04-02T09:39:10.217Z,1.31
2024-04-02T09:40:10.255Z,1.34
2024-04-02T09:41:10.278Z,1.37
2024-04-02T09:42:10.309Z,1.39
2024-04-02T09:43:10.873Z,1.43
2024-04-02T09:44:10.406Z,1.43
2024-04-02T09:45:10.452Z,1.42
2024-04-02T09:46:10.520Z,1.44
2024-04-02T09:47:10.767Z,1.41
2024-04-02T09:48:10.648Z,1.43
2024-04-02T09:49:10.712Z,1.47
2024-04-02T09:50:10.788Z,1.48
2024-04-02T09:51:10.838Z,1.50
2024-04-02T09:52:10.914Z,1.51
2024-04-02T09:53:10.960Z,1.47
2024-04-02T09:54:11.016Z,1.41
2024-04-02T09:55:11.063Z,1.38
2024-04-02T09:56:11.097Z,1.39
2024-04-02T09:57:11.134Z,1.32
2024-04-02T09:58:11.200Z,1.51
2024-04-02T09:59:11.199Z,1.63
2024-04-02T10:00:11.200Z,1.66
2024-04-02T10:01:11.241Z,1.60
2024-04-02T10:02:11.234Z,1.53
2024-04-02T10:03:11.234Z,1.46
2024-04-02T10:04:11.251Z,1.48
2024-04-02T10:05:11.256Z,1.47
2024-04-02T10:06:11.780Z,1.43
2024-04-02T10:07:11.780Z,1.30
2024-04-02T10:08:11.369Z,1.13
2024-04-02T10:09:11.399Z,0.99
2024-04-02T10:10:11.394Z,0.96
2024-04-02T10:11:11.790Z,1.00
2024-04-02T10:12:11.427Z,0.91
2024-04-02T10:13:11.452Z,0.82
2024-04-02T10:14:11.481Z,0.84
2024-04-02T10:15:11.520Z,0.70
2024-04-02T10:16:11.566Z,0.72
2024-04-02T10:17:11.615Z,0.74
2024-04-02T10:18:11.698Z,0.70
2024-04-02T10:19:11.735Z,0.64
2024-04-02T10:20:11.794Z,0.73
2024-04-02T10:21:12.292Z,0.76
2024-04-02T10:22:12.296Z,0.71
2024-04-02T10:23:11.993Z,0.70
2024-04-02T10:24:12.052Z,0.69
2024-04-02T10:25:12.109Z,0.70
2024-04-02T10:26:12.169Z,0.68
2024-04-02T10:27:12.290Z,0.69
2024-04-02T10:28:12.274Z,0.58
2024-04-02T10:29:12.322Z,0.59
2024-04-02T10:30:12.346Z,0.53
2024-04-02T10:31:12.363Z,0.52
2024-04-02T10:32:12.411Z,0.50
2024-04-02T10:33:12.387Z,0.50
2024-04-02T10:34:12.399Z,0.50
2024-04-02T10:35:12.468Z,0.49
2024-04-02T10:36:12.797Z,0.51
2024-04-02T10:37:12.824Z,0.50
2024-04-02T10:38:12.463Z,0.51
2024-04-02T10:39:12.485Z,0.51
2024-04-02T10:40:12.503Z,0.51
2024-04-02T10:41:12.504Z,0.50
2024-04-02T10:42:14.151Z,0.51
2024-04-02T10:43:12.533Z,0.52
2024-04-02T10:44:12.612Z,0.52
2024-04-02T10:45:12.577Z,0.50
2024-04-02T10:46:12.593Z,0.50
2024-04-02T10:47:12.593Z,0.52
2024-04-02T10:48:12.619Z,0.52
2024-04-02T10:49:12.629Z,0.50
2024-04-02T10:50:12.659Z,0.50
2024-04-02T10:51:12.797Z,0.51
2024-04-02T10:52:12.668Z,0.51
2024-04-02T10:53:12.685Z,0.52
2024-04-02T10:54:12.704Z,0.51
2024-04-02T10:55:12.707Z,0.51
2024-04-02T10:56:12.727Z,0.50
2024-04-02T10:57:12.739Z,0.49
2024-04-02T10:58:12.758Z,0.49
2024-04-02T10:59:12.759Z,0.50
2024-04-02T11:00:12.774Z,0.52
2024-04-02T11:01:12.797Z,0.50
2024-04-02T11:02:12.812Z,0.50
2024-04-02T11:03:12.837Z,0.55
2024-04-02T11:04:12.863Z,0.65
2024-04-02T11:05:12.891Z,0.74
2024-04-02T11:06:12.929Z,0.88
2024-04-02T11:07:12.966Z,1.06
2024-04-02T11:08:12.988Z,1.26
2024-04-02T11:09:13.018Z,1.39
2024-04-02T11:10:13.044Z,1.52
2024-04-02T11:11:13.310Z,1.73
2024-04-02T11:12:13.093Z,1.80
2024-04-02T11:13:13.930Z,1.98
2024-04-02T11:14:13.134Z,2.03
2024-04-02T11:15:13.153Z,2.08
2024-04-02T11:16:13.352Z,2.09
2024-04-02T11:17:13.194Z,2.14
2024-04-02T11:18:13.206Z,2.23
2024-04-02T11:19:13.219Z,2.32
2024-04-02T11:20:13.233Z,2.42
2024-04-02T11:21:13.251Z,2.40
2024-04-02T11:22:13.360Z,2.31
2024-04-02T11:23:13.328Z,2.27
2024-04-02T11:24:13.968Z,2.18
2024-04-02T11:25:21.994Z,2.13
2024-04-02T11:26:14.319Z,2.08
2024-04-02T11:27:13.320Z,2.00
2024-04-02T11:28:13.317Z,1.89
2024-04-02T11:29:13.316Z,1.81
2024-04-02T11:30:13.351Z,1.69
2024-04-02T11:31:13.325Z,1.69
2024-04-02T11:32:13.324Z,1.56
2024-04-02T11:33:13.316Z,1.53
2024-04-02T11:34:13.313Z,1.45
2024-04-02T11:35:13.319Z,1.37
2024-04-02T11:36:13.324Z,1.35
2024-04-02T11:37:13.326Z,1.23
2024-04-02T11:38:13.328Z,1.19
2024-04-02T11:39:13.326Z,1.14
2024-04-02T11:40:13.379Z,1.06
2024-04-02T11:41:13.327Z,1.03
2024-04-02T11:42:13.333Z,0.96
2024-04-02T11:43:13.331Z,0.94
2024-04-02T11:44:13.332Z,0.88
2024-04-02T11:45:13.337Z,0.85
2024-04-02T11:46:13.352Z,0.79
2024-04-02T11:47:13.342Z,0.80
2024-04-02T11:48:13.337Z,0.77
2024-04-02T11:49:13.341Z,0.73
2024-04-02T11:50:13.349Z,0.71
2024-04-02T11:51:13.333Z,0.69
2024-04-02T11:52:13.348Z,0.67
2024-04-02T11:53:13.531Z,0.65
2024-04-02T11:54:13.339Z,0.64
2024-04-02T11:55:13.339Z,0.62
2024-04-02T11:56:13.342Z,0.59
2024-04-02T11:57:13.341Z,0.58
2024-04-02T11:58:13.336Z,0.57
2024-04-02T11:59:13.348Z,0.54
2024-04-02T12:00:13.348Z,0.55
2024-04-02T12:01:13.829Z,0.53
2024-04-02T12:02:13.372Z,0.52
2024-04-02T12:03:13.392Z,0.51
2024-04-02T12:04:13.400Z,0.51
2024-04-02T12:05:13.420Z,0.51
2024-04-02T12:06:13.435Z,0.50
2024-04-02T12:07:13.443Z,0.50
2024-04-02T12:08:13.457Z,0.50
2024-04-02T12:09:13.465Z,0.51
2024-04-02T12:10:13.514Z,0.50
2024-04-02T12:11:13.514Z,0.51
2024-04-02T12:12:13.521Z,0.51
2024-04-02T12:13:13.535Z,0.50
2024-04-02T12:14:13.561Z,0.51
2024-04-02T12:15:13.612Z,0.51
2024-04-02T12:16:13.593Z,0.52
2024-04-02T12:17:13.617Z,0.51
2024-04-02T12:18:13.607Z,0.50
2024-04-02T12:19:14.050Z,0.50
2024-04-02T12:20:13.652Z,0.51
2024-04-02T12:21:13.675Z,0.51
2024-04-02T12:22:13.692Z,0.52
2024-04-02T12:23:13.708Z,0.50
2024-04-02T12:24:13.718Z,0.50
2024-04-02T12:25:13.743Z,0.51
2024-04-02T12:26:13.778Z,0.50
2024-04-02T12:27:13.857Z,0.50
2024-04-02T12:28:13.784Z,0.50
2024-04-02T12:29:13.805Z,0.50
2024-04-02T12:30:13.821Z,0.50
2024-04-02T12:31:13.849Z,0.50
2024-04-02T12:32:13.841Z,0.50
2024-04-02T12:33:13.873Z,0.50
2024-04-02T12:34:13.882Z,0.51
2024-04-02T12:35:13.903Z,0.50
2024-04-02T12:36:13.913Z,0.50
2024-04-02T12:37:13.928Z,0.50
2024-04-02T12:38:13.941Z,0.51
2024-04-02T12:39:13.969Z,0.51
2024-04-02T12:40:13.976Z,0.50
2024-04-02T12:41:14.003Z,0.50
2024-04-02T12:42:14.017Z,0.50
2024-04-02T12:43:14.036Z,0.50
2024-04-02T12:44:14.042Z,0.51
2024-04-02T12:45:14.089Z,0.51
2024-04-02T12:46:14.108Z,0.51
2024-04-02T12:47:14.107Z,0.51
2024-04-02T12:48:14.120Z,0.51
2024-04-02T12:49:19.191Z,0.50
2024-04-02T12:50:15.143Z,0.50
2024-04-02T12:51:14.164Z,0.50
2024-04-02T12:52:14.137Z,0.50
2024-04-02T12:53:14.138Z,0.49
2024-04-02T12:54:14.142Z,0.48
2024-04-02T12:55:14.222Z,0.50
2024-04-02T12:56:14.381Z,0.52
2024-04-02T12:57:14.140Z,0.50
2024-04-02T12:58:22.341Z,0.52
2024-04-02T12:59:15.149Z,0.52
2024-04-02T13:00:14.176Z,0.51
2024-04-02T13:01:14.152Z,0.51
2024-04-02T13:02:14.155Z,0.49
2024-04-02T13:03:14.148Z,0.49
2024-04-02T13:04:14.154Z,0.52
2024-04-02T13:05:14.226Z,0.50
2024-04-02T13:06:14.173Z,0.51
2024-04-02T13:07:14.156Z,0.51
2024-04-02T13:08:14.157Z,0.52
2024-04-02T13:09:14.157Z,0.51
2024-04-02T13:10:14.154Z,0.50
2024-04-02T13:11:14.159Z,0.51
2024-04-02T13:12:14.161Z,0.51
2024-04-02T13:13:14.161Z,0.50
2024-04-02T13:14:14.234Z,0.52
2024-04-02T13:15:14.159Z,0.50
2024-04-02T13:16:14.164Z,0.51
2024-04-02T13:17:14.170Z,0.53
2024-04-02T13:18:14.162Z,0.50
2024-04-02T13:19:14.172Z,0.50
2024-04-02T13:20:14.164Z,0.51
2024-04-02T13:21:14.166Z,0.50
2024-04-02T13:22:14.179Z,0.50
2024-04-02T13:23:14.201Z,0.52